createdAt,value
2022-09-14T00:02:06.998Z,16.22
2022-09-14T00:04:35.350Z,16.26
2022-09-14T00:07:02.307Z,16.23
2022-09-14T00:09:29.237Z,16.24
2022-09-14T00:11:56.365Z,16.27
2022-09-14T00:14:23.436Z,16.25
2022-09-14T00:16:52.122Z,16.21
2022-09-14T00:19:20.937Z,16.19
2022-09-14T00:21:53.396Z,16.17
2022-09-14T00:24:20.878Z,16.22
2022-09-14T00:26:48.441Z,16.20
2022-09-14T00:29:15.447Z,16.15
2022-09-14T00:31:42.478Z,16.12
2022-09-14T00:34:12.712Z,16.11
2022-09-14T00:36:42.291Z,16.07
2022-09-14T00:39:11.337Z,16.11
2022-09-14T00:41:40.796Z,16.16
2022-09-14T00:44:55.007Z,16.15
2022-09-14T00:47:22.155Z,16.09
2022-09-14T00:49:49.104Z,16.08
2022-09-14T00:52:20.393Z,16.11
2022-09-14T00:54:54.337Z,16.12
2022-09-14T00:57:22.509Z,16.05
2022-09-14T00:59:51.805Z,16.07
2022-09-14T01:02:20.844Z,16.13
2022-09-14T01:04:48.450Z,16.11
2022-09-14T01:07:27.846Z,16.11
2022-09-14T01:10:05.637Z,16.12
2022-09-14T01:12:40.768Z,16.13
2022-09-14T01:15:14.990Z,16.10
2022-09-14T01:17:47.568Z,16.08
2022-09-14T01:20:25.605Z,16.05
2022-09-14T01:23:03.873Z,16.04
2022-09-14T01:26:06.013Z,16.08
2022-09-14T01:28:37.565Z,15.98
2022-09-14T01:31:10.519Z,15.98
2022-09-14T01:33:42.662Z,16.03
2022-09-14T01:36:14.333Z,16.02
2022-09-14T01:38:45.313Z,16.01
2022-09-14T01:41:14.939Z,16.04
2022-09-14T01:43:46.563Z,16.03
2022-09-14T01:46:17.852Z,16.05
2022-09-14T01:48:49.887Z,15.97
2022-09-14T01:51:21.566Z,15.99
2022-09-14T01:53:53.537Z,16.00
2022-09-14T01:56:24.987Z,15.89
2022-09-14T01:59:00.357Z,15.90
2022-09-14T02:01:35.626Z,15.96
2022-09-14T02:04:07.228Z,15.87
2022-09-14T02:06:37.984Z,15.88
2022-09-14T02:09:07.418Z,15.91
2022-09-14T02:11:34.240Z,15.91
2022-09-14T02:14:02.857Z,15.94
2022-09-14T02:16:30.139Z,15.96
2022-09-14T02:18:59.160Z,15.96
2022-09-14T02:21:28.771Z,15.93
2022-09-14T02:23:56.411Z,15.91
2022-09-14T02:26:24.365Z,15.91
2022-09-14T02:28:55.943Z,15.94
2022-09-14T02:31:33.897Z,15.93
2022-09-14T02:34:08.746Z,15.95
2022-09-14T02:36:46.492Z,16.00
2022-09-14T02:39:24.699Z,15.98
2022-09-14T02:41:59.789Z,15.99
2022-09-14T02:44:35.013Z,15.97
2022-09-14T02:47:06.521Z,16.01
2022-09-14T02:49:43.657Z,16.01
2022-09-14T02:52:16.020Z,16.01
2022-09-14T02:54:48.415Z,15.97
2022-09-14T02:57:15.227Z,15.99
2022-09-14T02:59:41.999Z,16.02
2022-09-14T03:02:10.326Z,16.02
2022-09-14T03:04:37.226Z,15.94
2022-09-14T03:07:04.136Z,15.98
2022-09-14T03:09:31.087Z,16.00
2022-09-14T03:11:57.896Z,16.02
2022-09-14T03:14:24.895Z,16.03
2022-09-14T03:16:51.730Z,16.05
2022-09-14T03:19:19.913Z,16.10
2022-09-14T03:21:46.772Z,16.10
2022-09-14T03:24:13.646Z,16.08
2022-09-14T03:26:40.839Z,16.07
2022-09-14T03:29:07.681Z,16.06
2022-09-14T03:31:35.441Z,16.05
2022-09-14T03:34:02.596Z,16.05
2022-09-14T03:36:32.117Z,16.05
2022-09-14T03:39:00.176Z,16.06
2022-09-14T03:41:26.952Z,16.01
2022-09-14T03:43:53.775Z,16.04
2022-09-14T03:46:25.189Z,16.04
2022-09-14T03:48:52.171Z,16.01
2022-09-14T03:51:19.153Z,16.05
2022-09-14T03:53:47.693Z,16.02
2022-09-14T03:56:16.201Z,15.99
2022-09-14T03:58:43.370Z,15.96
2022-09-14T04:01:14.624Z,16.04
2022-09-14T04:03:41.761Z,15.99
2022-09-14T04:06:10.099Z,15.91
2022-09-14T04:08:39.176Z,15.87
2022-09-14T04:11:13.182Z,15.93
2022-09-14T04:13:40.325Z,15.89
2022-09-14T04:16:07.620Z,15.88
2022-09-14T04:18:34.794Z,15.86
2022-09-14T04:21:07.996Z,15.85
2022-09-14T04:23:46.190Z,15.86
2022-09-14T04:26:26.311Z,15.86
2022-09-14T04:28:53.577Z,15.81
2022-09-14T04:31:20.475Z,15.81
2022-09-14T04:33:50.616Z,15.84
2022-09-14T04:36:20.639Z,15.84
2022-09-14T04:38:47.810Z,15.81
2022-09-14T04:41:16.807Z,15.82
2022-09-14T04:43:46.343Z,15.87
2022-09-14T04:46:15.284Z,15.84
2022-09-14T04:48:42.615Z,15.82
2022-09-14T04:51:14.084Z,15.84
2022-09-14T04:53:41.222Z,15.84
2022-09-14T04:56:09.979Z,15.85
2022-09-14T04:58:39.629Z,15.86
2022-09-14T05:01:09.941Z,15.83
2022-09-14T05:03:40.992Z,15.83
2022-09-14T05:06:11.438Z,15.80
2022-09-14T05:08:38.806Z,15.77
2022-09-14T05:11:06.736Z,15.78
2022-09-14T05:13:33.990Z,15.79
2022-09-14T05:16:10.493Z,15.78
2022-09-14T05:18:37.955Z,15.83
2022-09-14T05:21:08.542Z,15.87
2022-09-14T05:23:36.165Z,15.87
2022-09-14T05:26:04.628Z,15.87
2022-09-14T05:28:32.604Z,15.91
2022-09-14T05:31:00.024Z,15.89
2022-09-14T05:33:28.451Z,15.89
2022-09-14T05:36:00.699Z,15.89
2022-09-14T05:38:28.595Z,15.88
2022-09-14T05:40:56.018Z,15.90
2022-09-14T05:43:22.919Z,15.89
2022-09-14T05:45:50.006Z,15.87
2022-09-14T05:48:17.172Z,15.96
2022-09-14T05:50:45.425Z,15.95
2022-09-14T05:53:12.234Z,15.98
2022-09-14T05:55:39.126Z,15.98
2022-09-14T05:58:06.057Z,15.98
2022-09-14T06:00:33.310Z,15.99
2022-09-14T06:03:00.152Z,15.97
2022-09-14T06:05:28.284Z,15.99
2022-09-14T06:07:56.545Z,16.06
2022-09-14T06:10:23.436Z,16.10
2022-09-14T06:12:54.795Z,16.09
2022-09-14T06:15:24.768Z,16.13
2022-09-14T06:17:51.702Z,16.16
2022-09-14T06:20:19.041Z,16.15
2022-09-14T06:22:45.918Z,16.13
2022-09-14T06:25:14.111Z,16.14
2022-09-14T06:27:40.962Z,16.14
2022-09-14T06:30:09.354Z,16.10
2022-09-14T06:32:36.202Z,16.11
2022-09-14T06:35:03.967Z,16.15
2022-09-14T06:37:30.803Z,16.20
2022-09-14T06:39:57.711Z,16.21
2022-09-14T06:42:25.926Z,16.21
2022-09-14T06:44:52.750Z,16.19
2022-09-14T06:47:19.523Z,16.20
2022-09-14T06:49:46.450Z,16.21
2022-09-14T06:52:13.347Z,16.18
2022-09-14T06:54:40.203Z,16.16
2022-09-14T06:57:07.147Z,16.22
2022-09-14T06:59:35.415Z,16.26
2022-09-14T07:02:02.463Z,16.29
2022-09-14T07:04:30.113Z,16.33
2022-09-14T07:06:56.963Z,16.30
2022-09-14T07:09:23.953Z,16.35
2022-09-14T07:11:50.905Z,16.45
2022-09-14T07:14:17.846Z,16.45
2022-09-14T07:16:46.098Z,16.47
2022-09-14T07:19:14.807Z,16.48
2022-09-14T07:21:42.737Z,16.54
2022-09-14T07:24:12.034Z,16.59
2022-09-14T07:26:42.362Z,16.61
2022-09-14T07:29:12.177Z,16.64
2022-09-14T07:31:41.926Z,16.67
2022-09-14T07:34:11.489Z,16.70
2022-09-14T07:36:39.452Z,16.74
2022-09-14T07:39:07.847Z,16.87
2022-09-14T07:41:36.960Z,16.87
2022-09-14T07:44:06.226Z,16.84
2022-09-14T07:46:39.102Z,16.96
2022-09-14T07:49:07.194Z,16.96
2022-09-14T07:51:36.877Z,17.01
2022-09-14T07:54:04.968Z,17.02
2022-09-14T07:56:32.768Z,17.06
2022-09-14T07:59:23.881Z,17.04
2022-09-14T08:01:48.880Z,17.11
2022-09-14T08:04:15.688Z,17.11
2022-09-14T08:06:43.947Z,17.13
2022-09-14T08:09:10.838Z,17.24
2022-09-14T08:11:38.459Z,17.27
2022-09-14T08:14:07.104Z,17.22
2022-09-14T08:16:35.040Z,17.13
2022-09-14T08:19:03.263Z,17.11
2022-09-14T08:21:30.974Z,17.07
2022-09-14T08:23:59.551Z,17.08
2022-09-14T08:26:27.302Z,17.09
2022-09-14T08:28:54.631Z,17.11
2022-09-14T08:31:22.136Z,17.14
2022-09-14T08:33:51.166Z,17.16
2022-09-14T08:36:18.647Z,17.07
2022-09-14T08:38:45.482Z,17.03
2022-09-14T08:41:18.366Z,-147.88
2022-09-14T08:43:45.605Z,-147.88
2022-09-14T08:46:19.850Z,-147.88
2022-09-14T08:48:48.960Z,-147.88
2022-09-14T08:51:18.109Z,-147.88
2022-09-14T08:53:45.658Z,-147.88
2022-09-14T08:56:18.290Z,-147.88
2022-09-14T08:58:58.767Z,-147.88
2022-09-14T09:01:37.414Z,17.03
2022-09-14T09:04:29.606Z,17.78
2022-09-14T09:07:00.979Z,17.77
2022-09-14T09:09:35.722Z,17.77
2022-09-14T09:12:05.668Z,17.97
2022-09-14T09:14:35.904Z,18.02
2022-09-14T09:17:10.427Z,18.05
2022-09-14T09:19:45.326Z,18.08
2022-09-14T09:22:15.208Z,17.97
2022-09-14T09:24:45.755Z,17.97
2022-09-14T09:27:16.170Z,17.85
2022-09-14T09:29:43.274Z,17.79
2022-09-14T09:32:15.280Z,17.84
2022-09-14T09:34:42.239Z,17.86
2022-09-14T09:37:14.553Z,-147.88
2022-09-14T09:39:41.734Z,-147.88
2022-09-14T09:42:15.986Z,-147.88
2022-09-14T09:45:02.168Z,-147.88
2022-09-14T09:47:33.384Z,17.86
2022-09-14T09:50:03.772Z,18.18
2022-09-14T09:52:32.975Z,18.38
2022-09-14T09:55:00.739Z,18.38
2022-09-14T09:57:34.331Z,18.67
2022-09-14T10:00:21.466Z,18.59
2022-09-14T10:02:48.889Z,18.63
2022-09-14T10:05:22.814Z,18.67
2022-09-14T10:07:56.287Z,18.66
2022-09-14T10:10:39.334Z,18.62
2022-09-14T10:13:20.201Z,18.47
2022-09-14T10:15:49.618Z,18.42
2022-09-14T10:18:18.447Z,18.44
2022-09-14T10:21:06.027Z,18.38
2022-09-14T10:23:36.281Z,18.45
2022-09-14T10:26:36.896Z,18.52
2022-09-14T10:29:27.141Z,18.55
2022-09-14T10:32:00.569Z,18.68
2022-09-14T10:34:28.627Z,18.75
2022-09-14T10:37:05.247Z,18.82
2022-09-14T10:39:40.884Z,18.75
2022-09-14T10:42:16.642Z,18.87
2022-09-14T10:45:01.381Z,18.87
2022-09-14T10:47:50.798Z,19.13
2022-09-14T10:50:32.437Z,19.35
2022-09-14T10:53:08.193Z,20.16
2022-09-14T10:55:43.971Z,-147.88
2022-09-14T10:58:26.047Z,-147.88
2022-09-14T11:01:08.869Z,20.01
2022-09-14T11:03:52.145Z,20.01
2022-09-14T11:06:34.612Z,19.78
2022-09-14T11:09:06.620Z,19.70
2022-09-14T11:11:44.337Z,19.46
2022-09-14T11:14:24.639Z,19.27
2022-09-14T11:17:10.990Z,19.14
2022-09-14T11:19:44.280Z,18.89
2022-09-14T11:22:19.229Z,18.93
2022-09-14T11:24:51.533Z,19.02
2022-09-14T11:27:25.934Z,18.90
2022-09-14T11:29:57.238Z,18.90
2022-09-14T11:32:38.755Z,18.86
2022-09-14T11:35:17.734Z,18.72
2022-09-14T11:37:49.271Z,18.71
2022-09-14T11:40:22.773Z,18.76
2022-09-14T11:42:52.464Z,18.82
2022-09-14T11:45:24.069Z,18.98
2022-09-14T11:48:00.002Z,19.53
2022-09-14T11:50:30.927Z,20.36
2022-09-14T11:53:09.411Z,21.10
2022-09-14T11:55:37.363Z,21.61
2022-09-14T11:58:07.719Z,21.35
2022-09-14T12:01:00.658Z,21.32
2022-09-14T12:03:52.382Z,21.02
2022-09-14T12:07:03.981Z,21.02
2022-09-14T12:09:54.148Z,21.86
2022-09-14T12:12:38.923Z,22.10
2022-09-14T12:15:34.176Z,21.49
2022-09-14T12:18:23.336Z,20.95
2022-09-14T12:21:01.442Z,21.02
2022-09-14T12:23:32.570Z,20.91
2022-09-14T12:26:25.304Z,21.05
2022-09-14T12:28:56.148Z,21.36
2022-09-14T12:31:48.685Z,21.08
2022-09-14T12:34:19.997Z,21.03
2022-09-14T12:37:19.384Z,20.78
2022-09-14T12:40:24.019Z,20.71
2022-09-14T12:42:50.981Z,20.71
2022-09-14T12:45:50.729Z,20.59
2022-09-14T12:48:58.615Z,20.36
2022-09-14T12:51:36.991Z,20.32
2022-09-14T12:54:17.959Z,20.27
2022-09-14T12:56:55.668Z,20.35
2022-09-14T12:59:29.330Z,20.50
2022-09-14T13:02:14.101Z,20.55
2022-09-14T13:04:42.302Z,20.46
2022-09-14T13:07:15.138Z,20.34
2022-09-14T13:09:49.639Z,20.14
2022-09-14T13:12:39.124Z,19.96
2022-09-14T13:15:14.482Z,19.76
2022-09-14T13:17:56.599Z,19.64
2022-09-14T13:20:23.622Z,19.55
2022-09-14T13:22:50.487Z,19.47
2022-09-14T13:25:32.592Z,19.43
2022-09-14T13:28:01.709Z,19.38
2022-09-14T13:30:30.641Z,19.32
2022-09-14T13:32:58.683Z,19.35
2022-09-14T13:35:30.197Z,19.29
2022-09-14T13:37:58.363Z,19.21
2022-09-14T13:40:29.388Z,19.23
2022-09-14T13:42:57.661Z,19.11
2022-09-14T13:45:25.974Z,19.10
2022-09-14T13:47:54.049Z,19.05
2022-09-14T13:50:24.391Z,18.98
2022-09-14T13:53:02.262Z,18.92
2022-09-14T13:55:44.213Z,18.93
2022-09-14T13:58:21.594Z,18.92
2022-09-14T14:00:54.993Z,18.80
2022-09-14T14:03:28.735Z,18.78
2022-09-14T14:05:58.079Z,18.74
2022-09-14T14:08:34.902Z,18.75
2022-09-14T14:11:05.403Z,18.70
2022-09-14T14:13:34.112Z,18.75
2022-09-14T14:16:16.210Z,18.67
2022-09-14T14:18:49.816Z,18.68
2022-09-14T14:21:25.012Z,18.62
2022-09-14T14:24:12.121Z,18.62
2022-09-14T14:26:48.202Z,18.64
2022-09-14T14:29:16.541Z,18.66
2022-09-14T14:31:44.688Z,18.73
2022-09-14T14:34:19.266Z,-147.88
2022-09-14T14:36:50.598Z,-147.88
2022-09-14T14:39:20.431Z,-147.88
2022-09-14T14:41:49.730Z,-147.88
2022-09-14T14:44:19.914Z,-147.88
2022-09-14T14:46:48.231Z,-147.88
2022-09-14T14:49:17.638Z,-147.88
2022-09-14T14:51:46.112Z,-147.88
2022-09-14T14:54:16.844Z,-147.88
2022-09-14T14:56:44.255Z,-147.88
2022-09-14T14:59:27.759Z,-147.88
2022-09-14T15:01:55.257Z,-147.88
2022-09-14T15:04:22.878Z,-147.88
2022-09-14T15:06:50.354Z,-147.88
2022-09-14T15:09:19.251Z,-147.88
2022-09-14T15:11:47.200Z,18.73
2022-09-14T15:14:14.707Z,18.57
2022-09-14T15:16:43.750Z,18.54
2022-09-14T15:19:11.265Z,-147.88
2022-09-14T15:21:38.710Z,-147.88
2022-09-14T15:24:06.275Z,18.54
2022-09-14T15:26:33.515Z,18.42
2022-09-14T15:29:02.132Z,18.38
2022-09-14T15:31:30.904Z,18.39
2022-09-14T15:34:00.444Z,18.37
2022-09-14T15:36:39.806Z,18.28
2022-09-14T15:39:08.521Z,18.25
2022-09-14T15:41:35.676Z,18.16
2022-09-14T15:44:03.988Z,18.18
2022-09-14T15:46:32.828Z,18.22
2022-09-14T15:49:06.797Z,18.21
2022-09-14T15:51:35.969Z,18.16
2022-09-14T15:54:04.783Z,18.02
2022-09-14T15:56:31.927Z,18.00
2022-09-14T15:58:59.949Z,18.04
2022-09-14T16:01:28.076Z,18.02
2022-09-14T16:03:59.471Z,17.97
2022-09-14T16:06:28.736Z,17.88
2022-09-14T16:08:56.287Z,17.81
2022-09-14T16:11:24.331Z,17.75
2022-09-14T16:13:52.806Z,17.60
2022-09-14T16:16:22.287Z,17.47
2022-09-14T16:18:50.143Z,17.42
2022-09-14T16:21:19.983Z,17.31
2022-09-14T16:23:54.025Z,17.23
2022-09-14T16:26:23.734Z,17.27
2022-09-14T16:28:51.996Z,17.29
2022-09-14T16:31:23.922Z,17.29
2022-09-14T16:33:54.074Z,17.33
2022-09-14T16:36:23.260Z,17.40
2022-09-14T16:38:51.897Z,17.39
2022-09-14T16:41:19.411Z,17.29
2022-09-14T16:43:47.437Z,17.30
2022-09-14T16:46:17.093Z,17.24
2022-09-14T16:48:46.331Z,17.17
2022-09-14T16:51:14.921Z,17.15
2022-09-14T16:53:47.098Z,17.21
2022-09-14T16:56:17.569Z,17.18
2022-09-14T16:58:45.672Z,17.18
2022-09-14T17:01:14.818Z,17.14
2022-09-14T17:03:42.948Z,17.16
2022-09-14T17:06:13.105Z,17.11
2022-09-14T17:08:43.623Z,17.00
2022-09-14T17:11:11.810Z,-147.88
2022-09-14T17:13:40.460Z,-147.88
2022-09-14T17:16:09.220Z,17.00
2022-09-14T17:18:37.903Z,-147.88
2022-09-14T17:21:07.142Z,-147.88
2022-09-14T17:23:34.478Z,-147.88
2022-09-14T17:26:03.594Z,-147.88
2022-09-14T17:28:30.630Z,17.00
2022-09-14T17:31:01.391Z,16.49
2022-09-14T17:33:29.091Z,16.46
2022-09-14T17:35:59.599Z,16.50
2022-09-14T17:38:29.242Z,16.58
2022-09-14T17:41:01.214Z,16.60
2022-09-14T17:43:28.336Z,16.61
2022-09-14T17:45:59.173Z,16.63
2022-09-14T17:48:28.195Z,16.64
2022-09-14T17:50:55.392Z,16.67
2022-09-14T17:53:22.662Z,16.69
2022-09-14T17:55:49.728Z,16.68
2022-09-14T17:58:19.701Z,16.65
2022-09-14T18:00:47.140Z,16.71
2022-09-14T18:03:15.907Z,16.71
2022-09-14T18:05:42.794Z,16.69
2022-09-14T18:08:09.710Z,16.71
2022-09-14T18:10:36.911Z,16.67
2022-09-14T18:13:04.139Z,16.67
2022-09-14T18:15:31.297Z,16.61
2022-09-14T18:17:58.424Z,16.63
2022-09-14T18:20:27.016Z,16.66
2022-09-14T18:22:55.447Z,16.65
2022-09-14T18:25:22.708Z,16.66
2022-09-14T18:27:49.898Z,16.61
2022-09-14T18:30:17.240Z,16.59
2022-09-14T18:32:46.450Z,16.60
2022-09-14T18:35:15.268Z,16.60
2022-09-14T18:37:44.046Z,16.60
2022-09-14T18:40:11.203Z,16.64
2022-09-14T18:42:38.163Z,16.65
2022-09-14T18:45:05.963Z,16.69
2022-09-14T18:47:33.103Z,16.79
2022-09-14T18:50:00.058Z,16.81
2022-09-14T18:52:27.523Z,16.81
2022-09-14T18:54:55.747Z,16.85
2022-09-14T18:57:23.309Z,16.84
2022-09-14T18:59:50.434Z,16.87
2022-09-14T19:02:17.566Z,16.87
2022-09-14T19:04:44.751Z,16.81
2022-09-14T19:07:11.783Z,16.82
2022-09-14T19:09:39.717Z,16.85
2022-09-14T19:12:08.382Z,-147.88
2022-09-14T19:14:35.269Z,-147.88
2022-09-14T19:17:02.236Z,-147.88
2022-09-14T19:19:29.391Z,-147.88
2022-09-14T19:21:56.323Z,-147.88
2022-09-14T19:24:24.662Z,16.85
2022-09-14T19:26:52.660Z,16.78
2022-09-14T19:29:23.623Z,16.82
2022-09-14T19:31:52.873Z,16.78
2022-09-14T19:34:20.934Z,-147.88
2022-09-14T19:36:49.312Z,16.70
2022-09-14T19:39:16.919Z,16.70
2022-09-14T19:41:44.458Z,16.69
2022-09-14T19:44:14.110Z,16.68
2022-09-14T19:46:43.720Z,16.68
2022-09-14T19:49:14.848Z,16.63
2022-09-14T19:51:42.764Z,16.64
2022-09-14T19:54:10.916Z,16.66
2022-09-14T19:56:39.150Z,16.60
2022-09-14T19:59:07.469Z,16.65
2022-09-14T20:01:37.770Z,16.60
2022-09-14T20:04:08.501Z,16.57
2022-09-14T20:06:41.093Z,16.57
2022-09-14T20:09:10.335Z,16.51
2022-09-14T20:11:39.132Z,16.52
2022-09-14T20:14:09.792Z,16.53
2022-09-14T20:16:41.072Z,16.49
2022-09-14T20:19:11.208Z,16.48
2022-09-14T20:21:39.035Z,16.52
2022-09-14T20:24:22.809Z,16.50
2022-09-14T20:26:51.022Z,16.52
2022-09-14T20:29:19.353Z,16.51
2022-09-14T20:31:46.718Z,16.50
2022-09-14T20:34:16.772Z,16.43
2022-09-14T20:36:43.871Z,16.41
2022-09-14T20:39:11.437Z,16.33
2022-09-14T20:41:38.428Z,16.31
2022-09-14T20:44:05.955Z,16.23
2022-09-14T20:46:39.134Z,16.23
2022-09-14T20:49:08.838Z,16.07
2022-09-14T20:51:39.161Z,15.96
2022-09-14T20:54:08.528Z,15.96
2022-09-14T20:56:37.336Z,15.95
2022-09-14T20:59:07.027Z,15.88
2022-09-14T21:01:35.653Z,15.74
2022-09-14T21:04:04.965Z,15.91
2022-09-14T21:06:32.064Z,16.01
2022-09-14T21:09:01.066Z,16.11
2022-09-14T21:11:28.591Z,16.11
2022-09-14T21:13:57.553Z,16.14
2022-09-14T21:16:27.084Z,16.07
2022-09-14T21:18:57.664Z,16.14
2022-09-14T21:21:26.031Z,16.11
2022-09-14T21:23:53.468Z,16.14
2022-09-14T21:26:22.601Z,16.16
2022-09-14T21:28:55.905Z,16.05
2022-09-14T21:31:23.917Z,16.07
2022-09-14T21:33:53.825Z,15.93
2022-09-14T21:36:22.960Z,15.92
2022-09-14T21:38:50.791Z,15.86
2022-09-14T21:41:18.969Z,15.84
2022-09-14T21:43:47.956Z,15.89
2022-09-14T21:46:15.341Z,15.87
2022-09-14T21:48:42.267Z,15.88
2022-09-14T21:51:16.126Z,15.93
2022-09-14T21:53:45.960Z,15.93
2022-09-14T21:56:13.213Z,15.87
2022-09-14T21:58:40.217Z,15.92
2022-09-14T22:01:09.546Z,15.91
2022-09-14T22:03:36.885Z,15.84
2022-09-14T22:06:06.952Z,15.84
2022-09-14T22:08:35.398Z,15.89
2022-09-14T22:11:04.312Z,15.97
2022-09-14T22:13:31.658Z,16.05
2022-09-14T22:15:59.071Z,16.02
2022-09-14T22:18:27.107Z,15.95
2022-09-14T22:20:57.541Z,15.83
2022-09-14T22:23:25.166Z,15.70
2022-09-14T22:25:52.095Z,15.67
2022-09-14T22:28:19.056Z,15.58
2022-09-14T22:30:46.315Z,15.50
2022-09-14T22:33:12.979Z,15.54
2022-09-14T22:35:50.671Z,15.55
2022-09-14T22:38:17.261Z,15.53
2022-09-14T22:40:43.861Z,15.61
2022-09-14T22:43:10.481Z,15.58
2022-09-14T22:45:37.234Z,15.57
2022-09-14T22:48:03.825Z,15.59
2022-09-14T22:50:30.376Z,15.62
2022-09-14T22:52:58.616Z,15.59
2022-09-14T22:55:25.612Z,15.60
2022-09-14T22:57:52.433Z,15.58
2022-09-14T23:00:19.562Z,15.58
2022-09-14T23:02:46.670Z,15.56
2022-09-14T23:05:13.572Z,15.52
2022-09-14T23:07:40.407Z,15.43
2022-09-14T23:10:09.055Z,15.46
2022-09-14T23:12:35.942Z,15.46
2022-09-14T23:15:02.815Z,15.47
2022-09-14T23:17:29.835Z,15.44
2022-09-14T23:19:56.890Z,15.46
2022-09-14T23:22:24.463Z,15.49
2022-09-14T23:24:51.385Z,15.52
2022-09-14T23:27:19.645Z,15.57
2022-09-14T23:29:46.440Z,15.59
2022-09-14T23:32:13.279Z,15.58
2022-09-14T23:34:40.130Z,15.58
2022-09-14T23:37:06.997Z,15.56
2022-09-14T23:39:33.842Z,15.53
2022-09-14T23:42:01.031Z,15.51
2022-09-14T23:44:29.058Z,15.54
2022-09-14T23:46:55.614Z,15.60
2022-09-14T23:49:22.446Z,15.56
2022-09-14T23:51:48.997Z,15.52
2022-09-14T23:54:15.555Z,15.48
2022-09-14T23:56:42.403Z,15.52
2022-09-14T23:59:10.465Z,15.56
